sensor_id;sensor_type;location;lat;lon;timestamp;temperature;humidity
15967;DHT22;15175;48.154;11.534;2022-08-03T00:01:06;21.50;99.90
15967;DHT22;15175;48.154;11.534;2022-08-03T00:03:33;21.50;99.90
15967;DHT22;15175;48.154;11.534;2022-08-03T00:06:00;21.40;99.90
15967;DHT22;15175;48.154;11.534;2022-08-03T00:08:27;21.40;99.90
15967;DHT22;15175;48.154;11.534;2022-08-03T00:10:54;21.30;99.90
15967;DHT22;15175;48.154;11.534;2022-08-03T00:13:21;21.20;99.90
15967;DHT22;15175;48.154;11.534;2022-08-03T00:15:50;21.20;99.90
15967;DHT22;15175;48.154;11.534;2022-08-03T00:18:17;21.10;99.90
15967;DHT22;15175;48.154;11.534;2022-08-03T00:20:44;21.10;99.90
15967;DHT22;15175;48.154;11.534;2022-08-03T00:23:11;21.10;99.90
15967;DHT22;15175;48.154;11.534;2022-08-03T00:25:39;21.00;99.90
15967;DHT22;15175;48.154;11.534;2022-08-03T00:28:06;20.90;99.90
15967;DHT22;15175;48.154;11.534;2022-08-03T00:30:34;20.90;99.90
15967;DHT22;15175;48.154;11.534;2022-08-03T00:33:03;20.80;99.90
15967;DHT22;15175;48.154;11.534;2022-08-03T00:35:31;20.80;99.90
15967;DHT22;15175;48.154;11.534;2022-08-03T00:37:58;20.80;99.90
15967;DHT22;15175;48.154;11.534;2022-08-03T00:40:25;20.70;99.90
15967;DHT22;15175;48.154;11.534;2022-08-03T00:42:53;20.70;99.90
15967;DHT22;15175;48.154;11.534;2022-08-03T00:45:22;20.70;99.90
15967;DHT22;15175;48.154;11.534;2022-08-03T00:47:50;20.60;99.90
15967;DHT22;15175;48.154;11.534;2022-08-03T00:50:19;20.50;99.90
15967;DHT22;15175;48.154;11.534;2022-08-03T00:52:48;20.50;99.90
15967;DHT22;15175;48.154;11.534;2022-08-03T00:55:16;20.40;99.90
15967;DHT22;15175;48.154;11.534;2022-08-03T00:57:43;20.30;99.90
15967;DHT22;15175;48.154;11.534;2022-08-03T01:00:12;20.30;99.90
15967;DHT22;15175;48.154;11.534;2022-08-03T01:02:40;20.20;99.90
15967;DHT22;15175;48.154;11.534;2022-08-03T01:05:08;20.20;99.90
15967;DHT22;15175;48.154;11.534;2022-08-03T01:07:41;20.20;99.90
15967;DHT22;15175;48.154;11.534;2022-08-03T01:10:16;20.20;99.90
15967;DHT22;15175;48.154;11.534;2022-08-03T01:12:49;20.20;99.90
15967;DHT22;15175;48.154;11.534;2022-08-03T01:15:22;20.20;99.90
15967;DHT22;15175;48.154;11.534;2022-08-03T01:17:54;20.20;99.90
15967;DHT22;15175;48.154;11.534;2022-08-03T01:20:23;20.10;99.90
15967;DHT22;15175;48.154;11.534;2022-08-03T01:23:05;20.10;99.90
15967;DHT22;15175;48.154;11.534;2022-08-03T01:25:49;20.00;99.90
15967;DHT22;15175;48.154;11.534;2022-08-03T01:28:38;20.00;99.90
15967;DHT22;15175;48.154;11.534;2022-08-03T01:31:10;20.00;99.90
15967;DHT22;15175;48.154;11.534;2022-08-03T01:33:42;19.90;99.90
15967;DHT22;15175;48.154;11.534;2022-08-03T01:36:13;19.90;99.90
15967;DHT22;15175;48.154;11.534;2022-08-03T01:38:45;20.00;99.90
15967;DHT22;15175;48.154;11.534;2022-08-03T01:41:20;20.00;99.90
15967;DHT22;15175;48.154;11.534;2022-08-03T01:43:49;20.00;99.90
15967;DHT22;15175;48.154;11.534;2022-08-03T01:46:20;20.00;99.90
15967;DHT22;15175;48.154;11.534;2022-08-03T01:48:48;19.90;99.90
15967;DHT22;15175;48.154;11.534;2022-08-03T01:51:17;19.90;99.90
15967;DHT22;15175;48.154;11.534;2022-08-03T01:53:46;20.00;99.90
15967;DHT22;15175;48.154;11.534;2022-08-03T01:56:15;19.90;99.90
15967;DHT22;15175;48.154;11.534;2022-08-03T01:58:44;19.90;99.90
15967;DHT22;15175;48.154;11.534;2022-08-03T02:01:12;19.90;99.90
15967;DHT22;15175;48.154;11.534;2022-08-03T02:03:43;19.90;99.90
15967;DHT22;15175;48.154;11.534;2022-08-03T02:06:12;19.80;99.90
15967;DHT22;15175;48.154;11.534;2022-08-03T02:08:40;19.80;99.90
15967;DHT22;15175;48.154;11.534;2022-08-03T02:11:08;19.80;99.90
15967;DHT22;15175;48.154;11.534;2022-08-03T02:13:35;19.80;99.90
15967;DHT22;15175;48.154;11.534;2022-08-03T02:16:03;19.70;99.90
15967;DHT22;15175;48.154;11.534;2022-08-03T02:18:31;19.70;99.90
15967;DHT22;15175;48.154;11.534;2022-08-03T02:21:01;19.70;99.90
15967;DHT22;15175;48.154;11.534;2022-08-03T02:23:29;19.70;99.90
15967;DHT22;15175;48.154;11.534;2022-08-03T02:25:58;19.70;99.90
15967;DHT22;15175;48.154;11.534;2022-08-03T02:28:30;19.70;99.90
15967;DHT22;15175;48.154;11.534;2022-08-03T02:31:02;19.60;99.90
15967;DHT22;15175;48.154;11.534;2022-08-03T02:33:33;19.70;99.90
15967;DHT22;15175;48.154;11.534;2022-08-03T02:36:04;19.70;99.90
15967;DHT22;15175;48.154;11.534;2022-08-03T02:38:33;19.60;99.90
15967;DHT22;15175;48.154;11.534;2022-08-03T02:41:06;19.60;99.90
15967;DHT22;15175;48.154;11.534;2022-08-03T02:43:34;19.60;99.90
15967;DHT22;15175;48.154;11.534;2022-08-03T02:46:03;19.60;99.90
15967;DHT22;15175;48.154;11.534;2022-08-03T02:48:32;19.60;99.90
15967;DHT22;15175;48.154;11.534;2022-08-03T02:51:03;19.60;99.90
15967;DHT22;15175;48.154;11.534;2022-08-03T02:53:32;19.60;99.90
15967;DHT22;15175;48.154;11.534;2022-08-03T02:56:01;19.60;99.90
15967;DHT22;15175;48.154;11.534;2022-08-03T02:58:30;19.50;99.90
15967;DHT22;15175;48.154;11.534;2022-08-03T03:00:58;19.50;99.90
15967;DHT22;15175;48.154;11.534;2022-08-03T03:03:26;19.50;99.90
15967;DHT22;15175;48.154;11.534;2022-08-03T03:05:54;19.50;99.90
15967;DHT22;15175;48.154;11.534;2022-08-03T03:08:24;19.40;99.90
15967;DHT22;15175;48.154;11.534;2022-08-03T03:10:52;19.30;99.90
15967;DHT22;15175;48.154;11.534;2022-08-03T03:13:21;19.30;99.90
15967;DHT22;15175;48.154;11.534;2022-08-03T03:15:50;19.30;99.90
15967;DHT22;15175;48.154;11.534;2022-08-03T03:18:19;19.30;99.90
15967;DHT22;15175;48.154;11.534;2022-08-03T03:20:47;19.30;99.90
15967;DHT22;15175;48.154;11.534;2022-08-03T03:23:16;19.20;99.90
15967;DHT22;15175;48.154;11.534;2022-08-03T03:25:45;19.20;99.90
15967;DHT22;15175;48.154;11.534;2022-08-03T03:28:12;19.20;99.90
15967;DHT22;15175;48.154;11.534;2022-08-03T03:30:40;19.30;99.90
15967;DHT22;15175;48.154;11.534;2022-08-03T03:33:07;19.20;99.90
15967;DHT22;15175;48.154;11.534;2022-08-03T03:35:34;19.30;99.90
15967;DHT22;15175;48.154;11.534;2022-08-03T03:38:02;19.20;99.90
15967;DHT22;15175;48.154;11.534;2022-08-03T03:40:29;19.20;99.90
15967;DHT22;15175;48.154;11.534;2022-08-03T03:42:57;19.20;99.90
15967;DHT22;15175;48.154;11.534;2022-08-03T03:45:25;19.20;99.90
15967;DHT22;15175;48.154;11.534;2022-08-03T03:47:53;19.10;99.90
15967;DHT22;15175;48.154;11.534;2022-08-03T03:50:21;19.10;99.90
15967;DHT22;15175;48.154;11.534;2022-08-03T03:52:49;19.10;99.90
15967;DHT22;15175;48.154;11.534;2022-08-03T03:55:17;19.10;99.90
15967;DHT22;15175;48.154;11.534;2022-08-03T03:57:44;19.20;99.90
15967;DHT22;15175;48.154;11.534;2022-08-03T04:00:14;19.20;99.90
15967;DHT22;15175;48.154;11.534;2022-08-03T04:02:42;19.20;99.90
15967;DHT22;15175;48.154;11.534;2022-08-03T04:05:09;19.10;99.90
15967;DHT22;15175;48.154;11.534;2022-08-03T04:07:57;19.10;99.90
15967;DHT22;15175;48.154;11.534;2022-08-03T04:10:46;19.10;99.90
15967;DHT22;15175;48.154;11.534;2022-08-03T04:13:28;19.10;99.90
15967;DHT22;15175;48.154;11.534;2022-08-03T04:15:58;19.10;99.90
15967;DHT22;15175;48.154;11.534;2022-08-03T04:18:27;19.20;99.90
15967;DHT22;15175;48.154;11.534;2022-08-03T04:20:57;19.10;99.90
15967;DHT22;15175;48.154;11.534;2022-08-03T04:23:26;19.20;99.90
15967;DHT22;15175;48.154;11.534;2022-08-03T04:25:55;19.20;99.90
15967;DHT22;15175;48.154;11.534;2022-08-03T04:28:23;19.20;99.90
15967;DHT22;15175;48.154;11.534;2022-08-03T04:30:52;19.30;99.90
15967;DHT22;15175;48.154;11.534;2022-08-03T04:33:21;19.30;99.90
15967;DHT22;15175;48.154;11.534;2022-08-03T04:35:51;19.30;99.90
15967;DHT22;15175;48.154;11.534;2022-08-03T04:38:22;19.30;99.90
15967;DHT22;15175;48.154;11.534;2022-08-03T04:40:52;19.30;99.90
15967;DHT22;15175;48.154;11.534;2022-08-03T04:43:20;19.30;99.90
15967;DHT22;15175;48.154;11.534;2022-08-03T04:45:49;19.30;99.90
15967;DHT22;15175;48.154;11.534;2022-08-03T04:48:17;19.40;99.90
15967;DHT22;15175;48.154;11.534;2022-08-03T04:50:46;19.30;99.90
15967;DHT22;15175;48.154;11.534;2022-08-03T04:53:15;19.30;99.90
15967;DHT22;15175;48.154;11.534;2022-08-03T04:55:43;19.50;99.90
15967;DHT22;15175;48.154;11.534;2022-08-03T04:58:10;19.50;99.90
15967;DHT22;15175;48.154;11.534;2022-08-03T05:00:37;19.60;99.90
15967;DHT22;15175;48.154;11.534;2022-08-03T05:03:04;19.70;99.90
15967;DHT22;15175;48.154;11.534;2022-08-03T05:05:31;19.80;99.90
15967;DHT22;15175;48.154;11.534;2022-08-03T05:08:00;19.80;99.90
15967;DHT22;15175;48.154;11.534;2022-08-03T05:10:27;19.80;99.90
15967;DHT22;15175;48.154;11.534;2022-08-03T05:12:54;19.90;99.90
15967;DHT22;15175;48.154;11.534;2022-08-03T05:15:21;19.90;99.90
15967;DHT22;15175;48.154;11.534;2022-08-03T05:17:48;19.90;99.90
15967;DHT22;15175;48.154;11.534;2022-08-03T05:20:15;20.00;99.90
15967;DHT22;15175;48.154;11.534;2022-08-03T05:22:42;20.00;99.90
15967;DHT22;15175;48.154;11.534;2022-08-03T05:25:11;20.00;99.90
15967;DHT22;15175;48.154;11.534;2022-08-03T05:27:38;20.10;99.90
15967;DHT22;15175;48.154;11.534;2022-08-03T05:30:05;20.20;99.90
15967;DHT22;15175;48.154;11.534;2022-08-03T05:32:33;20.20;99.90
15967;DHT22;15175;48.154;11.534;2022-08-03T05:35:00;20.20;99.90
15967;DHT22;15175;48.154;11.534;2022-08-03T05:37:27;20.40;99.90
15967;DHT22;15175;48.154;11.534;2022-08-03T05:39:54;20.60;99.90
15967;DHT22;15175;48.154;11.534;2022-08-03T05:42:23;20.60;99.90
15967;DHT22;15175;48.154;11.534;2022-08-03T05:44:50;20.60;99.90
15967;DHT22;15175;48.154;11.534;2022-08-03T05:47:17;20.60;99.90
15967;DHT22;15175;48.154;11.534;2022-08-03T05:49:44;20.80;99.90
15967;DHT22;15175;48.154;11.534;2022-08-03T05:52:11;21.00;99.90
15967;DHT22;15175;48.154;11.534;2022-08-03T05:54:38;21.30;99.90
15967;DHT22;15175;48.154;11.534;2022-08-03T05:57:05;21.60;99.90
15967;DHT22;15175;48.154;11.534;2022-08-03T05:59:33;22.00;99.90
15967;DHT22;15175;48.154;11.534;2022-08-03T06:02:00;22.50;99.90
15967;DHT22;15175;48.154;11.534;2022-08-03T06:04:27;23.10;99.90
15967;DHT22;15175;48.154;11.534;2022-08-03T06:06:54;23.50;99.90
15967;DHT22;15175;48.154;11.534;2022-08-03T06:09:22;23.60;99.90
15967;DHT22;15175;48.154;11.534;2022-08-03T06:11:49;23.90;99.90
15967;DHT22;15175;48.154;11.534;2022-08-03T06:14:16;24.10;99.90
15967;DHT22;15175;48.154;11.534;2022-08-03T06:16:44;24.40;99.90
15967;DHT22;15175;48.154;11.534;2022-08-03T06:19:11;24.60;99.90
15967;DHT22;15175;48.154;11.534;2022-08-03T06:21:38;24.90;99.90
15967;DHT22;15175;48.154;11.534;2022-08-03T06:24:06;25.20;99.90
15967;DHT22;15175;48.154;11.534;2022-08-03T06:26:33;25.60;99.90
15967;DHT22;15175;48.154;11.534;2022-08-03T06:29:00;25.70;99.90
15967;DHT22;15175;48.154;11.534;2022-08-03T06:31:27;26.00;99.90
15967;DHT22;15175;48.154;11.534;2022-08-03T06:33:56;26.30;99.90
15967;DHT22;15175;48.154;11.534;2022-08-03T06:36:23;26.60;99.90
15967;DHT22;15175;48.154;11.534;2022-08-03T06:38:56;26.90;99.90
15967;DHT22;15175;48.154;11.534;2022-08-03T06:41:23;26.60;99.90
15967;DHT22;15175;48.154;11.534;2022-08-03T06:43:50;26.80;99.90
15967;DHT22;15175;48.154;11.534;2022-08-03T06:46:17;27.00;99.90
15967;DHT22;15175;48.154;11.534;2022-08-03T06:48:44;27.20;99.80
15967;DHT22;15175;48.154;11.534;2022-08-03T06:51:13;27.30;99.30
15967;DHT22;15175;48.154;11.534;2022-08-03T06:53:40;27.40;99.00
15967;DHT22;15175;48.154;11.534;2022-08-03T06:56:07;27.40;98.80
15967;DHT22;15175;48.154;11.534;2022-08-03T06:58:34;27.50;99.00
15967;DHT22;15175;48.154;11.534;2022-08-03T07:01:02;27.80;98.70
15967;DHT22;15175;48.154;11.534;2022-08-03T07:03:29;27.80;98.40
15967;DHT22;15175;48.154;11.534;2022-08-03T07:05:56;28.00;97.80
15967;DHT22;15175;48.154;11.534;2022-08-03T07:08:25;28.10;97.60
15967;DHT22;15175;48.154;11.534;2022-08-03T07:10:53;28.10;97.60
15967;DHT22;15175;48.154;11.534;2022-08-03T07:13:20;28.20;97.70
15967;DHT22;15175;48.154;11.534;2022-08-03T07:15:47;28.30;97.10
15967;DHT22;15175;48.154;11.534;2022-08-03T07:18:14;28.40;97.10
15967;DHT22;15175;48.154;11.534;2022-08-03T07:20:41;28.60;97.20
15967;DHT22;15175;48.154;11.534;2022-08-03T07:23:08;28.70;96.80
15967;DHT22;15175;48.154;11.534;2022-08-03T07:25:37;28.80;96.30
15967;DHT22;15175;48.154;11.534;2022-08-03T07:28:04;28.90;96.30
15967;DHT22;15175;48.154;11.534;2022-08-03T07:30:31;29.00;95.90
15967;DHT22;15175;48.154;11.534;2022-08-03T07:32:58;29.10;96.10
15967;DHT22;15175;48.154;11.534;2022-08-03T07:35:25;29.10;95.10
15967;DHT22;15175;48.154;11.534;2022-08-03T07:37:52;29.00;95.20
15967;DHT22;15175;48.154;11.534;2022-08-03T07:40:19;29.10;95.40
15967;DHT22;15175;48.154;11.534;2022-08-03T07:42:48;29.20;95.50
15967;DHT22;15175;48.154;11.534;2022-08-03T07:45:15;29.20;95.30
15967;DHT22;15175;48.154;11.534;2022-08-03T07:47:42;29.20;95.60
15967;DHT22;15175;48.154;11.534;2022-08-03T07:50:09;29.30;95.10
15967;DHT22;15175;48.154;11.534;2022-08-03T07:52:36;29.30;95.10
15967;DHT22;15175;48.154;11.534;2022-08-03T07:55:18;29.30;95.30
15967;DHT22;15175;48.154;11.534;2022-08-03T07:57:46;29.40;94.80
15967;DHT22;15175;48.154;11.534;2022-08-03T08:00:16;29.60;94.60
15967;DHT22;15175;48.154;11.534;2022-08-03T08:02:44;29.60;94.80
15967;DHT22;15175;48.154;11.534;2022-08-03T08:05:11;29.70;94.80
15967;DHT22;15175;48.154;11.534;2022-08-03T08:07:39;29.80;94.50
15967;DHT22;15175;48.154;11.534;2022-08-03T08:10:08;29.90;93.90
15967;DHT22;15175;48.154;11.534;2022-08-03T08:12:35;29.90;94.20
15967;DHT22;15175;48.154;11.534;2022-08-03T08:15:04;30.00;94.10
15967;DHT22;15175;48.154;11.534;2022-08-03T08:17:40;30.30;93.30
15967;DHT22;15175;48.154;11.534;2022-08-03T08:20:08;30.20;93.20
15967;DHT22;15175;48.154;11.534;2022-08-03T08:22:35;30.20;93.20
15967;DHT22;15175;48.154;11.534;2022-08-03T08:25:03;30.30;93.00
15967;DHT22;15175;48.154;11.534;2022-08-03T08:27:30;30.30;93.10
15967;DHT22;15175;48.154;11.534;2022-08-03T08:29:57;30.40;92.60
15967;DHT22;15175;48.154;11.534;2022-08-03T08:32:24;30.50;92.60
15967;DHT22;15175;48.154;11.534;2022-08-03T08:34:53;30.70;92.40
15967;DHT22;15175;48.154;11.534;2022-08-03T08:37:20;30.80;92.40
15967;DHT22;15175;48.154;11.534;2022-08-03T08:39:47;30.80;91.70
15967;DHT22;15175;48.154;11.534;2022-08-03T08:42:14;30.80;91.70
15967;DHT22;15175;48.154;11.534;2022-08-03T08:44:41;30.90;91.80
15967;DHT22;15175;48.154;11.534;2022-08-03T08:47:09;30.90;91.60
15967;DHT22;15175;48.154;11.534;2022-08-03T08:49:38;30.90;91.50
15967;DHT22;15175;48.154;11.534;2022-08-03T08:52:07;30.80;91.80
15967;DHT22;15175;48.154;11.534;2022-08-03T08:54:36;30.80;91.50
15967;DHT22;15175;48.154;11.534;2022-08-03T08:57:06;30.70;91.50
15967;DHT22;15175;48.154;11.534;2022-08-03T08:59:35;30.80;91.40
15967;DHT22;15175;48.154;11.534;2022-08-03T09:02:02;30.60;91.20
15967;DHT22;15175;48.154;11.534;2022-08-03T09:04:29;30.70;91.00
15967;DHT22;15175;48.154;11.534;2022-08-03T09:06:56;30.80;90.90
15967;DHT22;15175;48.154;11.534;2022-08-03T09:09:25;31.00;90.40
15967;DHT22;15175;48.154;11.534;2022-08-03T09:11:52;31.20;90.30
15967;DHT22;15175;48.154;11.534;2022-08-03T09:14:19;31.10;90.10
15967;DHT22;15175;48.154;11.534;2022-08-03T09:16:56;31.10;88.80
15967;DHT22;15175;48.154;11.534;2022-08-03T09:19:28;31.10;87.70
15967;DHT22;15175;48.154;11.534;2022-08-03T09:22:07;31.20;86.30
15967;DHT22;15175;48.154;11.534;2022-08-03T09:24:35;31.10;86.70
15967;DHT22;15175;48.154;11.534;2022-08-03T09:27:05;31.10;86.00
15967;DHT22;15175;48.154;11.534;2022-08-03T09:29:37;31.30;86.30
15967;DHT22;15175;48.154;11.534;2022-08-03T09:32:04;31.20;86.30
15967;DHT22;15175;48.154;11.534;2022-08-03T09:34:32;31.10;85.30
15967;DHT22;15175;48.154;11.534;2022-08-03T09:36:59;31.10;84.40
15967;DHT22;15175;48.154;11.534;2022-08-03T09:39:26;31.20;83.80
15967;DHT22;15175;48.154;11.534;2022-08-03T09:42:08;31.20;82.60
15967;DHT22;15175;48.154;11.534;2022-08-03T09:44:37;31.30;80.90
15967;DHT22;15175;48.154;11.534;2022-08-03T09:47:05;31.40;79.30
15967;DHT22;15175;48.154;11.534;2022-08-03T09:49:32;31.30;79.80
15967;DHT22;15175;48.154;11.534;2022-08-03T09:52:01;31.60;81.00
15967;DHT22;15175;48.154;11.534;2022-08-03T09:54:30;31.60;79.80
15967;DHT22;15175;48.154;11.534;2022-08-03T09:56:57;31.40;80.90
15967;DHT22;15175;48.154;11.534;2022-08-03T09:59:28;31.30;81.40
15967;DHT22;15175;48.154;11.534;2022-08-03T10:01:56;31.30;81.40
15967;DHT22;15175;48.154;11.534;2022-08-03T10:04:25;31.40;81.50
15967;DHT22;15175;48.154;11.534;2022-08-03T10:07:03;31.50;80.00
15967;DHT22;15175;48.154;11.534;2022-08-03T10:09:30;31.60;79.50
15967;DHT22;15175;48.154;11.534;2022-08-03T10:12:06;31.50;79.70
15967;DHT22;15175;48.154;11.534;2022-08-03T10:14:36;31.50;79.20
15967;DHT22;15175;48.154;11.534;2022-08-03T10:17:04;31.50;80.20
15967;DHT22;15175;48.154;11.534;2022-08-03T10:19:32;31.70;78.20
15967;DHT22;15175;48.154;11.534;2022-08-03T10:22:02;31.60;77.20
15967;DHT22;15175;48.154;11.534;2022-08-03T10:24:32;31.60;77.20
15967;DHT22;15175;48.154;11.534;2022-08-03T10:27:02;31.70;77.60
15967;DHT22;15175;48.154;11.534;2022-08-03T10:29:36;31.60;77.40
15967;DHT22;15175;48.154;11.534;2022-08-03T10:32:07;31.60;77.70
15967;DHT22;15175;48.154;11.534;2022-08-03T10:34:39;31.50;77.80
15967;DHT22;15175;48.154;11.534;2022-08-03T10:37:09;31.50;77.50
15967;DHT22;15175;48.154;11.534;2022-08-03T10:39:37;31.60;77.50
15967;DHT22;15175;48.154;11.534;2022-08-03T10:42:20;31.60;76.80
15967;DHT22;15175;48.154;11.534;2022-08-03T10:44:57;31.80;76.90
15967;DHT22;15175;48.154;11.534;2022-08-03T10:47:27;31.90;75.80
15967;DHT22;15175;48.154;11.534;2022-08-03T10:49:55;31.90;76.50
15967;DHT22;15175;48.154;11.534;2022-08-03T10:52:22;31.90;76.00
15967;DHT22;15175;48.154;11.534;2022-08-03T10:54:49;31.90;74.90
15967;DHT22;15175;48.154;11.534;2022-08-03T10:57:48;31.80;74.60
15967;DHT22;15175;48.154;11.534;2022-08-03T11:00:17;31.70;75.70
15967;DHT22;15175;48.154;11.534;2022-08-03T11:03:14;31.80;75.00
15967;DHT22;15175;48.154;11.534;2022-08-03T11:05:44;32.00;74.40
15967;DHT22;15175;48.154;11.534;2022-08-03T11:08:22;31.90;73.30
15967;DHT22;15175;48.154;11.534;2022-08-03T11:10:51;31.90;74.00
15967;DHT22;15175;48.154;11.534;2022-08-03T11:13:20;31.80;74.30
15967;DHT22;15175;48.154;11.534;2022-08-03T11:15:51;32.00;74.50
15967;DHT22;15175;48.154;11.534;2022-08-03T11:18:18;32.00;71.10
15967;DHT22;15175;48.154;11.534;2022-08-03T11:20:49;32.00;71.30
15967;DHT22;15175;48.154;11.534;2022-08-03T11:23:19;32.00;71.80
15967;DHT22;15175;48.154;11.534;2022-08-03T11:26:09;32.10;72.10
15967;DHT22;15175;48.154;11.534;2022-08-03T11:28:36;32.40;72.50
15967;DHT22;15175;48.154;11.534;2022-08-03T11:31:46;32.70;71.50
15967;DHT22;15175;48.154;11.534;2022-08-03T11:34:14;32.90;69.70
15967;DHT22;15175;48.154;11.534;2022-08-03T11:37:20;32.90;69.20
15967;DHT22;15175;48.154;11.534;2022-08-03T11:39:50;33.00;69.40
15967;DHT22;15175;48.154;11.534;2022-08-03T11:42:42;33.30;68.60
15967;DHT22;15175;48.154;11.534;2022-08-03T11:45:11;33.40;66.80
15967;DHT22;15175;48.154;11.534;2022-08-03T11:47:41;33.50;66.80
15967;DHT22;15175;48.154;11.534;2022-08-03T11:50:09;33.60;66.70
15967;DHT22;15175;48.154;11.534;2022-08-03T11:52:39;33.60;66.40
15967;DHT22;15175;48.154;11.534;2022-08-03T11:55:17;33.70;66.10
15967;DHT22;15175;48.154;11.534;2022-08-03T11:57:45;33.60;65.30
15967;DHT22;15175;48.154;11.534;2022-08-03T12:00:23;33.60;64.90
15967;DHT22;15175;48.154;11.534;2022-08-03T12:03:00;33.80;64.80
15967;DHT22;15175;48.154;11.534;2022-08-03T12:05:43;34.10;63.90
15967;DHT22;15175;48.154;11.534;2022-08-03T12:08:12;34.20;65.20
15967;DHT22;15175;48.154;11.534;2022-08-03T12:10:45;34.30;63.80
15967;DHT22;15175;48.154;11.534;2022-08-03T12:13:12;34.30;63.20
15967;DHT22;15175;48.154;11.534;2022-08-03T12:15:40;34.20;62.50
15967;DHT22;15175;48.154;11.534;2022-08-03T12:18:16;34.00;63.20
15967;DHT22;15175;48.154;11.534;2022-08-03T12:20:44;33.80;64.00
15967;DHT22;15175;48.154;11.534;2022-08-03T12:23:11;33.50;63.00
15967;DHT22;15175;48.154;11.534;2022-08-03T12:25:40;33.50;63.80
15967;DHT22;15175;48.154;11.534;2022-08-03T12:28:12;33.50;63.90
15967;DHT22;15175;48.154;11.534;2022-08-03T12:30:44;33.60;62.70
15967;DHT22;15175;48.154;11.534;2022-08-03T12:33:18;33.60;62.30
15967;DHT22;15175;48.154;11.534;2022-08-03T12:36:02;33.80;62.40
15967;DHT22;15175;48.154;11.534;2022-08-03T12:38:30;33.80;61.30
15967;DHT22;15175;48.154;11.534;2022-08-03T12:40:59;34.10;62.70
15967;DHT22;15175;48.154;11.534;2022-08-03T12:43:26;34.50;61.30
15967;DHT22;15175;48.154;11.534;2022-08-03T12:46:11;34.50;59.90
15967;DHT22;15175;48.154;11.534;2022-08-03T12:49:09;34.10;61.60
15967;DHT22;15175;48.154;11.534;2022-08-03T12:54:23;33.10;61.90
15967;DHT22;15175;48.154;11.534;2022-08-03T12:56:57;32.60;62.90
15967;DHT22;15175;48.154;11.534;2022-08-03T12:59:25;32.30;63.30
15967;DHT22;15175;48.154;11.534;2022-08-03T13:01:52;32.10;63.70
15967;DHT22;15175;48.154;11.534;2022-08-03T13:04:27;32.00;64.10
15967;DHT22;15175;48.154;11.534;2022-08-03T13:06:58;32.00;63.50
15967;DHT22;15175;48.154;11.534;2022-08-03T13:09:25;32.00;62.00
15967;DHT22;15175;48.154;11.534;2022-08-03T13:12:11;31.90;62.40
15967;DHT22;15175;48.154;11.534;2022-08-03T13:14:39;31.90;64.00
15967;DHT22;15175;48.154;11.534;2022-08-03T13:17:07;31.90;65.10
15967;DHT22;15175;48.154;11.534;2022-08-03T13:19:37;32.00;65.10
15967;DHT22;15175;48.154;11.534;2022-08-03T13:22:10;32.10;64.10
15967;DHT22;15175;48.154;11.534;2022-08-03T13:24:38;32.10;62.30
15967;DHT22;15175;48.154;11.534;2022-08-03T13:27:05;32.10;62.90
15967;DHT22;15175;48.154;11.534;2022-08-03T13:29:33;32.10;62.90
15967;DHT22;15175;48.154;11.534;2022-08-03T13:32:00;32.10;62.20
15967;DHT22;15175;48.154;11.534;2022-08-03T13:34:28;31.90;62.00
15967;DHT22;15175;48.154;11.534;2022-08-03T13:36:56;31.70;62.40
15967;DHT22;15175;48.154;11.534;2022-08-03T13:39:23;31.60;62.40
15967;DHT22;15175;48.154;11.534;2022-08-03T13:41:50;31.70;64.00
15967;DHT22;15175;48.154;11.534;2022-08-03T13:44:17;31.90;63.30
15967;DHT22;15175;48.154;11.534;2022-08-03T13:46:45;31.90;65.10
15967;DHT22;15175;48.154;11.534;2022-08-03T13:49:12;32.10;65.20
15967;DHT22;15175;48.154;11.534;2022-08-03T13:51:40;32.40;64.90
15967;DHT22;15175;48.154;11.534;2022-08-03T13:54:08;32.60;64.70
15967;DHT22;15175;48.154;11.534;2022-08-03T13:56:35;32.90;62.90
15967;DHT22;15175;48.154;11.534;2022-08-03T13:59:02;33.10;63.70
15967;DHT22;15175;48.154;11.534;2022-08-03T14:01:31;33.40;64.30
15967;DHT22;15175;48.154;11.534;2022-08-03T14:03:58;33.50;63.40
15967;DHT22;15175;48.154;11.534;2022-08-03T14:06:25;33.60;62.50
15967;DHT22;15175;48.154;11.534;2022-08-03T14:08:52;33.70;63.40
15967;DHT22;15175;48.154;11.534;2022-08-03T14:11:21;33.80;62.20
15967;DHT22;15175;48.154;11.534;2022-08-03T14:13:48;33.60;62.00
15967;DHT22;15175;48.154;11.534;2022-08-03T14:16:15;33.50;62.50
15967;DHT22;15175;48.154;11.534;2022-08-03T14:18:42;33.50;62.70
15967;DHT22;15175;48.154;11.534;2022-08-03T14:21:09;33.20;61.50
15967;DHT22;15175;48.154;11.534;2022-08-03T14:23:36;33.00;62.20
15967;DHT22;15175;48.154;11.534;2022-08-03T14:26:04;32.80;63.00
15967;DHT22;15175;48.154;11.534;2022-08-03T14:28:32;32.60;63.50
15967;DHT22;15175;48.154;11.534;2022-08-03T14:31:00;32.30;63.90
15967;DHT22;15175;48.154;11.534;2022-08-03T14:33:27;32.00;64.60
15967;DHT22;15175;48.154;11.534;2022-08-03T14:35:54;31.70;65.50
15967;DHT22;15175;48.154;11.534;2022-08-03T14:38:21;31.60;66.80
15967;DHT22;15175;48.154;11.534;2022-08-03T14:40:49;31.50;67.50
15967;DHT22;15175;48.154;11.534;2022-08-03T14:43:17;31.50;67.50
15967;DHT22;15175;48.154;11.534;2022-08-03T14:45:47;31.50;67.70
15967;DHT22;15175;48.154;11.534;2022-08-03T14:48:16;31.40;67.70
15967;DHT22;15175;48.154;11.534;2022-08-03T14:50:43;31.40;67.40
15967;DHT22;15175;48.154;11.534;2022-08-03T14:53:11;31.30;68.10
15967;DHT22;15175;48.154;11.534;2022-08-03T14:55:38;31.30;68.00
15967;DHT22;15175;48.154;11.534;2022-08-03T14:58:05;31.30;67.50
15967;DHT22;15175;48.154;11.534;2022-08-03T15:00:32;31.30;67.50
15967;DHT22;15175;48.154;11.534;2022-08-03T15:03:01;31.20;65.90
15967;DHT22;15175;48.154;11.534;2022-08-03T15:05:29;31.20;67.60
15967;DHT22;15175;48.154;11.534;2022-08-03T15:07:56;31.10;68.10
15967;DHT22;15175;48.154;11.534;2022-08-03T15:10:23;31.10;67.70
15967;DHT22;15175;48.154;11.534;2022-08-03T15:12:50;31.20;67.60
15967;DHT22;15175;48.154;11.534;2022-08-03T15:15:19;31.20;67.90
15967;DHT22;15175;48.154;11.534;2022-08-03T15:17:46;31.20;68.00
15967;DHT22;15175;48.154;11.534;2022-08-03T15:20:14;31.20;68.50
15967;DHT22;15175;48.154;11.534;2022-08-03T15:22:41;31.20;68.30
15967;DHT22;15175;48.154;11.534;2022-08-03T15:25:09;31.20;66.60
15967;DHT22;15175;48.154;11.534;2022-08-03T15:27:37;31.10;67.50
15967;DHT22;15175;48.154;11.534;2022-08-03T15:30:05;31.10;67.30
15967;DHT22;15175;48.154;11.534;2022-08-03T15:32:32;31.00;66.60